This is the latest recevied weather packets stored in our database for station/object DK6OC-10. If no packets are shown the sender has not sent any weather packets the latest 10 day(s).
| Time | Temp. | Humidity | Pressure | Rain* | Wind** | Luminosity | Snow |
|---|---|---|---|---|---|---|---|
| 1777501836 | 20.56° C | 23% | 1022.9 hPa | - | - | - | - |
| 1777500036 | 20.56° C | 23% | 1022.6 hPa | - | - | - | - |
| 1777498236 | 21.11° C | 23% | 1022.2 hPa | - | - | - | - |
| 1777496436 | 21.11° C | 23% | 1022 hPa | - | - | - | - |
| 1777494636 | 21.67° C | 23% | 1021.9 hPa | - | - | - | - |
| 1777492836 | 22.22° C | 23% | 1021.6 hPa | - | - | - | - |
| 1777491036 | 22.22° C | 23% | 1021.3 hPa | - | - | - | - |
| 1777489236 | 22.78° C | 22% | 1020.7 hPa | - | - | - | - |
| 1777487436 | 23.89° C | 20% | 1020.2 hPa | - | - | - | - |
| 1777485636 | 25° C | 20% | 1019.7 hPa | - | - | - | - |
| 1777483836 | 25.56° C | 20% | 1019.4 hPa | - | - | - | - |
| 1777482035 | 25.56° C | 21% | 1019.5 hPa | - | - | - | - |
| 1777480235 | 26.11° C | 19% | 1019.4 hPa | - | - | - | - |
| 1777478435 | 26.11° C | 18% | 1019.4 hPa | - | - | - | - |
| 1777476635 | 26.11° C | 19% | 1019.3 hPa | - | - | - | - |
| 1777474835 | 26.11° C | 19% | 1019.4 hPa | - | - | - | - |
| 1777473035 | 26.11° C | 19% | 1019.6 hPa | - | - | - | - |
| 1777471235 | 26.11° C | 18% | 1019.6 hPa | - | - | - | - |
| 1777469435 | 25.56° C | 19% | 1019.7 hPa | - | - | - | - |
| 1777467635 | 26.11° C | 18% | 1019.9 hPa | - | - | - | - |
| 1777465834 | 25° C | 19% | 1020 hPa | - | - | - | - |
| 1777464034 | 24.44° C | 19% | 1020 hPa | - | - | - | - |
| 1777462234 | 23.33° C | 21% | 1020.1 hPa | - | - | - | - |
| 1777460434 | 23.89° C | 21% | 1020.3 hPa | - | - | - | - |
| 1777458634 | 23.33° C | 20% | 1020.5 hPa | - | - | - | - |
* Rain since midnight (hover to see other rain measurements)
** Current wind speed in m/s (hover to see current wind gust speed)